createdAt,value
2023-03-06T00:00:41.326Z,10.67
2023-03-06T00:03:08.182Z,10.73
2023-03-06T00:05:35.202Z,10.77
2023-03-06T00:08:02.160Z,10.81
2023-03-06T00:10:37.080Z,10.86
2023-03-06T00:13:11.213Z,10.89
2023-03-06T00:15:40.022Z,10.93
2023-03-06T00:18:06.923Z,10.95
2023-03-06T00:20:41.030Z,10.95
2023-03-06T00:23:09.456Z,10.96
2023-03-06T00:25:41.827Z,10.95
2023-03-06T00:28:09.877Z,10.96
2023-03-06T00:30:37.462Z,10.94
2023-03-06T00:33:05.243Z,10.93
2023-03-06T00:35:33.692Z,10.93
2023-03-06T00:38:00.373Z,10.92
2023-03-06T00:40:27.309Z,10.90
2023-03-06T00:42:54.627Z,10.86
2023-03-06T00:45:25.328Z,10.82
2023-03-06T00:47:52.075Z,10.81
2023-03-06T00:50:18.876Z,10.78
2023-03-06T00:52:46.429Z,10.77
2023-03-06T00:55:13.059Z,10.78
2023-03-06T00:57:40.882Z,10.78
2023-03-06T01:00:08.082Z,10.77
2023-03-06T01:02:35.457Z,10.78
2023-03-06T01:05:03.266Z,10.77
2023-03-06T01:07:36.329Z,10.76
2023-03-06T01:10:05.617Z,10.75
2023-03-06T01:12:33.877Z,10.76
2023-03-06T01:15:01.198Z,10.75
2023-03-06T01:17:28.973Z,10.73
2023-03-06T01:19:56.852Z,10.71
2023-03-06T01:22:23.597Z,10.70
2023-03-06T01:24:50.489Z,10.69
2023-03-06T01:27:17.130Z,10.70
2023-03-06T01:29:44.097Z,10.71
2023-03-06T01:32:11.103Z,10.70
2023-03-06T01:34:38.950Z,10.69
2023-03-06T01:37:05.625Z,10.70
2023-03-06T01:39:33.501Z,10.72
2023-03-06T01:42:00.514Z,10.73
2023-03-06T01:44:27.693Z,10.74
2023-03-06T01:46:54.431Z,10.75
2023-03-06T01:49:28.052Z,10.78
2023-03-06T01:52:09.221Z,10.84
2023-03-06T01:54:44.286Z,10.88
2023-03-06T01:57:13.153Z,10.93
2023-03-06T01:59:40.164Z,10.96
2023-03-06T02:02:08.073Z,10.98
2023-03-06T02:04:36.125Z,10.98
2023-03-06T02:07:05.669Z,10.99
2023-03-06T02:09:34.631Z,11.01
2023-03-06T02:12:02.637Z,10.99
2023-03-06T02:14:29.913Z,10.96
2023-03-06T02:17:03.613Z,10.92
2023-03-06T02:19:33.893Z,10.90
2023-03-06T02:22:00.649Z,10.87
2023-03-06T02:25:02.729Z,10.85
2023-03-06T02:27:30.176Z,10.84
2023-03-06T02:29:57.342Z,10.80
2023-03-06T02:32:24.182Z,10.76
2023-03-06T02:34:55.924Z,10.75
2023-03-06T02:37:23.744Z,10.76
2023-03-06T02:40:09.400Z,10.75
2023-03-06T02:42:36.943Z,10.71
2023-03-06T02:45:04.303Z,10.68
2023-03-06T02:47:31.339Z,10.65
2023-03-06T02:49:59.707Z,10.55
2023-03-06T02:52:26.451Z,10.53
2023-03-06T02:54:53.303Z,10.59
2023-03-06T02:57:20.240Z,10.65
2023-03-06T02:59:46.937Z,10.72
2023-03-06T03:02:14.236Z,10.76
2023-03-06T03:04:41.608Z,10.77
2023-03-06T03:07:08.900Z,10.77
2023-03-06T03:09:36.676Z,10.77
2023-03-06T03:12:08.782Z,10.77
2023-03-06T03:14:37.351Z,10.79
2023-03-06T03:17:04.189Z,10.80
2023-03-06T03:19:30.902Z,10.81
2023-03-06T03:21:57.570Z,10.82
2023-03-06T03:24:25.466Z,10.83
2023-03-06T03:26:52.239Z,10.83
2023-03-06T03:29:19.862Z,10.82
2023-03-06T03:31:47.757Z,10.82
2023-03-06T03:34:14.600Z,10.82
2023-03-06T03:36:41.893Z,10.83
2023-03-06T03:39:09.646Z,10.84
2023-03-06T03:41:36.857Z,10.87
2023-03-06T03:44:05.592Z,10.92
2023-03-06T03:46:36.410Z,10.98
2023-03-06T03:49:04.117Z,11.01
2023-03-06T03:51:31.442Z,11.02
2023-03-06T03:53:58.391Z,11.04
2023-03-06T03:56:27.337Z,11.07
2023-03-06T03:59:04.381Z,11.09
2023-03-06T04:01:39.150Z,11.11
2023-03-06T04:04:07.674Z,11.12
2023-03-06T04:06:34.803Z,11.14
2023-03-06T04:09:04.022Z,11.14
2023-03-06T04:11:30.956Z,11.13
2023-03-06T04:13:57.798Z,11.11
2023-03-06T04:16:24.737Z,11.09
2023-03-06T04:18:51.719Z,11.07
2023-03-06T04:21:24.086Z,11.05
2023-03-06T04:23:50.988Z,11.02
2023-03-06T04:26:17.854Z,11.01
2023-03-06T04:28:46.765Z,11.04
2023-03-06T04:31:17.386Z,11.09
2023-03-06T04:33:44.332Z,11.13
2023-03-06T04:36:16.628Z,11.17
2023-03-06T04:38:43.648Z,11.18
2023-03-06T04:41:11.410Z,11.18
2023-03-06T04:43:39.606Z,11.19
2023-03-06T04:46:06.727Z,11.20
2023-03-06T04:48:36.745Z,11.19
2023-03-06T04:51:03.783Z,11.18
2023-03-06T04:53:32.428Z,11.18
2023-03-06T04:55:59.451Z,11.17
2023-03-06T04:58:27.830Z,11.17
2023-03-06T05:00:54.719Z,11.15
2023-03-06T05:03:21.656Z,11.13
2023-03-06T05:05:49.053Z,11.09
2023-03-06T05:08:16.087Z,11.06
2023-03-06T05:10:44.084Z,11.04
2023-03-06T05:13:11.700Z,11.05
2023-03-06T05:15:41.886Z,11.05
2023-03-06T05:18:09.785Z,11.06
2023-03-06T05:20:36.844Z,11.07
2023-03-06T05:23:08.433Z,11.12
2023-03-06T05:25:41.332Z,11.18
2023-03-06T05:28:08.324Z,11.24
2023-03-06T05:30:35.471Z,11.27
2023-03-06T05:33:05.144Z,11.28
2023-03-06T05:35:32.709Z,11.28
2023-03-06T05:38:02.126Z,11.29
2023-03-06T05:40:30.683Z,11.29
2023-03-06T05:42:59.766Z,11.29
2023-03-06T05:45:28.292Z,11.25
2023-03-06T05:47:57.735Z,11.24
2023-03-06T05:50:28.789Z,11.25
2023-03-06T05:52:59.765Z,11.25
2023-03-06T05:55:28.871Z,11.27
2023-03-06T05:57:58.834Z,11.28
2023-03-06T06:00:27.948Z,11.30
2023-03-06T06:02:56.584Z,11.32
2023-03-06T06:05:26.765Z,11.36
2023-03-06T06:07:56.197Z,11.40
2023-03-06T06:10:25.179Z,11.45
2023-03-06T06:12:53.597Z,11.47
2023-03-06T06:15:22.809Z,11.48
2023-03-06T06:17:52.956Z,11.49
2023-03-06T06:20:21.819Z,11.50
2023-03-06T06:22:51.848Z,11.53
2023-03-06T06:25:21.843Z,11.58
2023-03-06T06:27:50.991Z,11.64
2023-03-06T06:30:20.110Z,11.71
2023-03-06T06:32:49.893Z,11.86
2023-03-06T06:35:19.053Z,12.10
2023-03-06T06:46:53.350Z,13.37
2023-03-06T06:49:05.398Z,13.45
2023-03-06T06:51:33.449Z,13.42
2023-03-06T06:54:00.505Z,13.35
2023-03-06T06:56:27.560Z,13.28
2023-03-06T06:59:15.389Z,13.24
2023-03-06T07:01:44.754Z,13.24
2023-03-06T07:04:13.055Z,13.22
2023-03-06T07:06:41.021Z,13.21
2023-03-06T07:09:08.196Z,13.22
2023-03-06T07:11:35.940Z,13.22
2023-03-06T07:14:02.737Z,13.21
2023-03-06T07:16:29.854Z,13.15
2023-03-06T07:18:56.915Z,13.07
2023-03-06T07:21:24.127Z,13.02
2023-03-06T07:23:51.113Z,12.99
2023-03-06T07:26:18.770Z,12.98
2023-03-06T07:28:52.601Z,12.97
2023-03-06T07:31:21.819Z,12.95
2023-03-06T07:33:49.746Z,12.91
2023-03-06T07:36:16.691Z,12.85
2023-03-06T07:38:43.643Z,12.80
2023-03-06T07:41:13.039Z,12.76
2023-03-06T07:43:40.915Z,12.72
2023-03-06T07:46:08.195Z,12.72
2023-03-06T07:48:36.252Z,12.73
2023-03-06T07:51:10.043Z,12.76
2023-03-06T07:53:36.840Z,12.77
2023-03-06T07:56:08.546Z,12.74
2023-03-06T07:58:37.482Z,12.70
2023-03-06T08:02:13.916Z,12.66
2023-03-06T08:04:42.501Z,12.56
2023-03-06T08:07:11.125Z,12.50
2023-03-06T08:09:39.740Z,12.51
2023-03-06T08:12:08.766Z,12.53
2023-03-06T08:14:36.888Z,12.55
2023-03-06T08:17:09.319Z,12.59
2023-03-06T08:19:37.511Z,12.65
2023-03-06T08:22:06.288Z,12.70
2023-03-06T08:24:36.558Z,12.75
2023-03-06T08:27:04.816Z,12.81
2023-03-06T08:29:40.337Z,12.85
2023-03-06T08:32:11.838Z,12.91
2023-03-06T08:34:41.390Z,12.96
2023-03-06T08:37:10.674Z,13.06
2023-03-06T08:39:39.076Z,13.20
2023-03-06T08:42:07.655Z,13.24
2023-03-06T08:44:38.185Z,13.28
2023-03-06T08:47:06.462Z,13.30
2023-03-06T08:49:36.131Z,13.33
2023-03-06T08:52:04.688Z,13.34
2023-03-06T08:54:35.450Z,13.42
2023-03-06T08:57:03.976Z,13.53
2023-03-06T08:59:32.703Z,13.67
2023-03-06T09:02:01.736Z,13.76
2023-03-06T09:04:38.028Z,13.90
2023-03-06T09:07:07.950Z,14.05
2023-03-06T09:09:36.154Z,14.20
2023-03-06T09:12:05.010Z,14.31
2023-03-06T09:14:33.317Z,14.43
2023-03-06T09:17:01.381Z,14.55
2023-03-06T09:19:29.895Z,14.62
2023-03-06T09:22:00.625Z,14.70
2023-03-06T09:24:33.849Z,14.78
2023-03-06T09:27:02.272Z,14.84
2023-03-06T09:29:30.671Z,14.95
2023-03-06T09:31:59.428Z,15.00
2023-03-06T09:34:28.218Z,14.97
2023-03-06T09:37:03.211Z,14.83
2023-03-06T09:39:31.433Z,14.67
2023-03-06T09:41:59.710Z,14.61
2023-03-06T09:44:29.653Z,14.56
2023-03-06T09:47:07.328Z,14.49
2023-03-06T09:49:58.266Z,14.46
2023-03-06T09:52:30.022Z,14.34
2023-03-06T09:54:59.597Z,14.15
2023-03-06T09:57:38.228Z,14.00
2023-03-06T10:00:15.404Z,13.89
2023-03-06T10:02:50.819Z,13.76
2023-03-06T10:05:25.111Z,13.78
2023-03-06T10:08:26.116Z,13.83
2023-03-06T10:28:46.862Z,15.07
2023-03-06T10:31:28.076Z,15.40
2023-03-06T10:33:58.773Z,15.44
2023-03-06T10:36:27.965Z,15.44
2023-03-06T10:38:57.581Z,15.46
2023-03-06T10:41:28.555Z,15.43
2023-03-06T10:43:59.866Z,15.46
2023-03-06T10:46:36.232Z,15.51
2023-03-06T10:49:25.428Z,15.51
2023-03-06T10:52:12.571Z,15.46
2023-03-06T10:54:45.218Z,15.43
2023-03-06T10:57:32.454Z,15.39
2023-03-06T11:00:23.234Z,15.27
2023-03-06T11:03:16.655Z,15.06
2023-03-06T11:07:59.321Z,13.42
2023-03-06T11:10:28.936Z,14.39
2023-03-06T11:13:06.530Z,14.48
2023-03-06T11:15:41.628Z,14.41
2023-03-06T11:18:10.590Z,14.31
2023-03-06T11:20:51.479Z,14.24
2023-03-06T11:23:43.272Z,14.25
2023-03-06T11:26:26.400Z,14.29
2023-03-06T11:29:19.277Z,14.29
2023-03-06T11:31:56.542Z,14.30
2023-03-06T11:34:42.230Z,14.34
2023-03-06T11:37:25.347Z,14.42
2023-03-06T11:40:09.084Z,14.43
2023-03-06T11:42:41.068Z,14.45
2023-03-06T11:45:34.852Z,14.53
2023-03-06T11:48:17.642Z,14.57
2023-03-06T11:50:53.414Z,14.51
2023-03-06T11:53:35.969Z,14.53
2023-03-06T11:56:10.208Z,14.57
2023-03-06T11:59:07.132Z,14.51
2023-03-06T12:01:41.931Z,14.47
2023-03-06T12:04:44.393Z,14.45
2023-03-06T12:07:16.154Z,14.38
2023-03-06T12:10:20.885Z,14.45
2023-03-06T12:13:13.738Z,14.52
2023-03-06T12:16:11.289Z,14.50
2023-03-06T12:18:43.120Z,14.49
2023-03-06T12:21:20.562Z,14.49
2023-03-06T12:24:00.749Z,14.52
2023-03-06T12:26:54.388Z,14.53
2023-03-06T12:30:12.532Z,14.50
2023-03-06T12:32:41.155Z,14.45
2023-03-06T12:35:17.452Z,14.45
2023-03-06T12:38:04.580Z,14.44
2023-03-06T12:40:56.544Z,14.46
2023-03-06T12:43:46.937Z,14.43
2023-03-06T12:46:28.228Z,14.38
2023-03-06T12:49:26.323Z,14.37
2023-03-06T12:51:58.912Z,14.39
2023-03-06T12:54:31.559Z,14.34
2023-03-06T12:56:59.863Z,14.28
2023-03-06T12:59:34.564Z,14.29
2023-03-06T13:02:21.336Z,14.35
2023-03-06T13:04:55.703Z,14.41
2023-03-06T13:07:28.205Z,14.40
2023-03-06T13:10:24.819Z,14.38
2023-03-06T13:13:02.003Z,14.35
2023-03-06T13:15:36.763Z,14.30
2023-03-06T13:18:24.333Z,14.30
2023-03-06T13:20:57.686Z,14.28
2023-03-06T13:23:32.187Z,14.24
2023-03-06T13:26:02.300Z,14.22
2023-03-06T13:28:50.337Z,14.17
2023-03-06T13:31:36.548Z,14.08
2023-03-06T13:34:25.812Z,14.03
2023-03-06T13:37:17.540Z,14.00
2023-03-06T13:39:55.248Z,14.00
2023-03-06T13:42:31.931Z,14.06
2023-03-06T13:45:35.028Z,14.09
2023-03-06T13:48:24.948Z,14.08
2023-03-06T13:50:52.246Z,14.05
2023-03-06T13:53:45.854Z,14.03
2023-03-06T13:56:53.381Z,14.01
2023-03-06T13:59:25.184Z,13.99
2023-03-06T14:02:19.378Z,13.99
2023-03-06T14:04:54.469Z,13.96
2023-03-06T14:07:37.675Z,13.96
2023-03-06T14:10:34.118Z,13.99
2023-03-06T14:13:07.776Z,14.04
2023-03-06T14:15:47.665Z,14.05
2023-03-06T14:18:23.975Z,14.03
2023-03-06T14:21:02.821Z,14.04
2023-03-06T14:23:35.933Z,14.02
2023-03-06T14:26:07.253Z,14.02
2023-03-06T14:28:36.159Z,14.04
2023-03-06T14:31:38.459Z,14.06
2023-03-06T14:34:30.712Z,14.05
2023-03-06T14:37:05.674Z,14.04
2023-03-06T14:39:43.768Z,14.00
2023-03-06T14:42:22.066Z,13.99
2023-03-06T14:45:17.801Z,13.96
2023-03-06T14:47:53.291Z,13.93
2023-03-06T14:50:23.319Z,13.92
2023-03-06T14:52:55.821Z,13.91
2023-03-06T14:55:26.050Z,13.89
2023-03-06T14:58:01.152Z,13.85
2023-03-06T15:00:35.885Z,13.81
2023-03-06T15:03:06.100Z,13.79
2023-03-06T15:05:34.998Z,13.76
2023-03-06T15:08:04.574Z,13.74
2023-03-06T15:10:35.959Z,13.73
2023-03-06T15:13:25.229Z,13.69
2023-03-06T15:16:05.931Z,13.67
2023-03-06T15:18:44.005Z,13.66
2023-03-06T15:21:20.756Z,13.65
2023-03-06T15:23:50.556Z,13.63
2023-03-06T15:26:29.211Z,13.60
2023-03-06T15:29:08.940Z,13.55
2023-03-06T15:31:42.465Z,13.49
2023-03-06T15:34:15.648Z,13.43
2023-03-06T15:36:49.250Z,13.37
2023-03-06T15:39:28.085Z,13.33
2023-03-06T15:42:18.322Z,13.27
2023-03-06T15:44:54.736Z,13.19
2023-03-06T15:47:23.152Z,13.13
2023-03-06T15:49:54.673Z,13.08
2023-03-06T15:52:23.189Z,13.01
2023-03-06T16:01:18.934Z,12.91
2023-03-06T16:04:03.333Z,12.83
2023-03-06T16:06:31.662Z,12.92
2023-03-06T16:08:59.974Z,12.92
2023-03-06T16:11:41.999Z,12.90
2023-03-06T16:14:21.435Z,12.87
2023-03-06T16:16:51.395Z,12.82
2023-03-06T16:19:26.238Z,12.75
2023-03-06T16:21:56.284Z,12.71
2023-03-06T16:24:26.337Z,12.60
2023-03-06T16:26:55.284Z,12.46
2023-03-06T16:29:25.579Z,12.41
2023-03-06T16:31:55.439Z,12.35
2023-03-06T16:34:24.105Z,12.30
2023-03-06T16:36:53.797Z,12.27
2023-03-06T16:39:22.930Z,12.23
2023-03-06T16:41:55.287Z,12.19
2023-03-06T16:44:23.983Z,12.14
2023-03-06T16:46:52.146Z,12.10
2023-03-06T16:49:24.146Z,12.05
2023-03-06T16:51:52.878Z,12.00
2023-03-06T16:54:23.389Z,11.96
2023-03-06T16:56:51.815Z,11.92
2023-03-06T16:59:25.036Z,11.86
2023-03-06T17:01:54.489Z,11.80
2023-03-06T17:04:22.825Z,11.75
2023-03-06T17:06:53.554Z,11.72
2023-03-06T17:09:21.914Z,11.67
2023-03-06T17:11:50.369Z,11.62
2023-03-06T17:14:19.701Z,11.59
2023-03-06T17:16:48.358Z,11.55
2023-03-06T17:19:16.762Z,11.50
2023-03-06T17:21:46.763Z,11.45
2023-03-06T17:24:15.624Z,11.40
2023-03-06T17:26:44.551Z,11.35
2023-03-06T17:29:12.847Z,11.28
2023-03-06T17:31:41.025Z,11.22
2023-03-06T17:34:09.450Z,11.17
2023-03-06T17:36:38.162Z,11.12
2023-03-06T17:39:06.360Z,11.08
2023-03-06T17:41:35.040Z,11.05
2023-03-06T17:44:03.283Z,11.03
2023-03-06T17:46:32.500Z,11.02
2023-03-06T17:49:01.032Z,11.02
2023-03-06T17:51:29.573Z,11.01
2023-03-06T17:53:58.461Z,11.00
2023-03-06T17:56:31.456Z,11.00
2023-03-06T17:59:00.679Z,11.01
2023-03-06T18:01:30.332Z,11.00
2023-03-06T18:04:03.976Z,11.00
2023-03-06T18:06:33.643Z,10.99
2023-03-06T18:09:05.431Z,10.97
2023-03-06T18:11:33.978Z,10.95
2023-03-06T18:14:05.280Z,10.92
2023-03-06T18:16:53.521Z,10.92
2023-03-06T18:19:22.134Z,10.90
2023-03-06T18:21:50.273Z,10.88
2023-03-06T18:24:18.658Z,10.87
2023-03-06T18:26:47.856Z,10.85
2023-03-06T18:29:16.352Z,10.82
2023-03-06T18:31:47.101Z,10.81
2023-03-06T18:34:15.565Z,10.79
2023-03-06T18:36:47.154Z,10.80
2023-03-06T18:39:16.107Z,10.79
2023-03-06T18:41:44.310Z,10.77
2023-03-06T18:44:14.331Z,10.76
2023-03-06T18:46:42.778Z,10.75
2023-03-06T18:49:12.296Z,10.74
2023-03-06T18:51:40.891Z,10.73
2023-03-06T18:54:10.281Z,10.72
2023-03-06T18:56:39.931Z,10.72
2023-03-06T18:59:08.365Z,10.70
2023-03-06T19:01:37.859Z,10.68
2023-03-06T19:04:06.388Z,10.67
2023-03-06T19:06:38.095Z,10.65
2023-03-06T19:09:06.498Z,10.64
2023-03-06T19:11:39.101Z,10.62
2023-03-06T19:14:07.910Z,10.61
2023-03-06T19:16:36.305Z,10.61
2023-03-06T19:19:07.230Z,10.61
2023-03-06T19:21:35.839Z,10.61
2023-03-06T19:24:04.975Z,10.60
2023-03-06T19:26:33.370Z,10.60
2023-03-06T19:29:01.566Z,10.59
2023-03-06T19:31:30.361Z,10.59
2023-03-06T19:33:59.222Z,10.58
2023-03-06T19:36:33.462Z,10.57
2023-03-06T19:39:03.871Z,10.57
2023-03-06T19:41:32.156Z,10.56
2023-03-06T19:44:02.523Z,10.55
2023-03-06T19:46:32.100Z,10.55
2023-03-06T19:49:02.645Z,10.55
2023-03-06T19:51:31.172Z,10.55
2023-03-06T19:54:02.982Z,10.56
2023-03-06T19:56:33.898Z,10.55
2023-03-06T19:59:02.125Z,10.56
2023-03-06T20:01:30.996Z,10.57
2023-03-06T20:04:00.131Z,10.56
2023-03-06T20:06:30.109Z,10.55
2023-03-06T20:09:01.576Z,10.56
2023-03-06T20:11:32.686Z,10.57
2023-03-06T20:14:02.797Z,10.57
2023-03-06T20:16:31.460Z,10.56
2023-03-06T20:19:10.816Z,10.57
2023-03-06T20:21:41.392Z,10.57
2023-03-06T20:24:16.797Z,10.57
2023-03-06T20:26:46.197Z,10.53
2023-03-06T20:29:14.472Z,10.50
2023-03-06T20:31:42.650Z,10.48
2023-03-06T20:34:14.607Z,10.47
2023-03-06T20:36:43.125Z,10.47
2023-03-06T20:39:13.526Z,10.45
2023-03-06T20:41:43.332Z,10.47
2023-03-06T20:44:14.385Z,10.48
2023-03-06T20:46:43.344Z,10.50
2023-03-06T20:49:16.278Z,10.52
2023-03-06T20:51:45.399Z,10.52
2023-03-06T20:54:15.022Z,10.52
2023-03-06T20:56:48.072Z,10.52
2023-03-06T20:59:16.860Z,10.51
2023-03-06T21:01:45.788Z,10.50
2023-03-06T21:04:14.385Z,10.48
2023-03-06T21:06:46.590Z,10.47
2023-03-06T21:09:16.311Z,10.45
2023-03-06T21:11:45.238Z,10.40
2023-03-06T21:14:15.132Z,10.36
2023-03-06T21:16:44.220Z,10.35
2023-03-06T21:19:22.045Z,10.33
2023-03-06T21:21:50.858Z,10.32
2023-03-06T21:24:21.219Z,10.31
2023-03-06T21:26:52.280Z,10.30
2023-03-06T21:29:21.488Z,10.28
2023-03-06T21:31:55.295Z,10.26
2023-03-06T21:34:24.075Z,10.25
2023-03-06T21:36:52.351Z,10.23
2023-03-06T21:39:21.269Z,10.23
2023-03-06T21:41:49.570Z,10.24
2023-03-06T21:44:18.120Z,10.25
2023-03-06T21:46:46.393Z,10.25
2023-03-06T21:49:15.412Z,10.24
2023-03-06T21:51:43.828Z,10.24
2023-03-06T21:54:13.180Z,10.24
2023-03-06T21:56:42.981Z,10.24
2023-03-06T21:59:11.148Z,10.23
2023-03-06T22:01:39.547Z,10.23
2023-03-06T22:04:08.523Z,10.22
2023-03-06T22:06:38.035Z,10.22
2023-03-06T22:09:06.726Z,10.22
2023-03-06T22:11:37.386Z,10.25
2023-03-06T22:14:06.562Z,10.30
2023-03-06T22:16:38.828Z,10.39
2023-03-06T22:19:08.139Z,10.47
2023-03-06T22:21:36.554Z,10.56
2023-03-06T22:24:06.858Z,10.62
2023-03-06T22:26:35.109Z,10.65
2023-03-06T22:29:07.702Z,10.70
2023-03-06T22:31:39.274Z,10.75
2023-03-06T22:34:09.281Z,10.80
2023-03-06T22:36:57.419Z,10.82
2023-03-06T22:39:26.922Z,10.83
2023-03-06T22:41:56.018Z,10.78
2023-03-06T22:44:24.175Z,10.76
2023-03-06T22:46:53.686Z,10.77
2023-03-06T22:49:21.962Z,10.81
2023-03-06T22:51:50.136Z,10.85
2023-03-06T22:54:20.957Z,10.89
2023-03-06T22:56:50.209Z,10.89
2023-03-06T22:59:19.086Z,10.91
2023-03-06T23:01:48.680Z,10.93
2023-03-06T23:04:17.210Z,10.95
2023-03-06T23:06:52.397Z,10.97
2023-03-06T23:09:21.913Z,10.99
2023-03-06T23:12:11.716Z,11.02
2023-03-06T23:14:59.758Z,11.05
2023-03-06T23:17:46.890Z,11.08
2023-03-06T23:20:34.688Z,11.10
2023-03-06T23:26:01.976Z,9.89
2023-03-06T23:28:30.859Z,10.97
2023-03-06T23:30:59.762Z,11.14
2023-03-06T23:33:28.745Z,11.22
2023-03-06T23:36:04.046Z,11.30
2023-03-06T23:38:32.469Z,11.37
2023-03-06T23:41:04.945Z,11.38
2023-03-06T23:43:33.939Z,11.40
2023-03-06T23:46:03.071Z,11.41
2023-03-06T23:48:34.596Z,11.46
2023-03-06T23:51:11.429Z,11.48
2023-03-06T23:53:41.905Z,11.50
2023-03-06T23:56:10.128Z,11.51
2023-03-06T23:58:39.489Z,11.51
